Tuskegee, Oklahoma
Current Conditions -  °F | °C
As of 8:15 AM on Thursday 29 Jan 2015 (Local Time) from KOKM Reporting Station
Clear Clear  
Wind Chill: 51°   Ceiling: Unl
Heat Index: 51°   Visibility: 10mi
Dew Point: 35°   Wind: 14mph
Humidity: 54%   Direction: 340°NNW
Pressure: 30.25"   Gusts: 23mph
Location:  35.7718°N, 96.3174°W
Report Text: KOKM 291415Z AUTO 34012G20KT 10SM CLR 11/02 A3025 RMK AO2 T01050015
Loading
Personal Weather Stations






























Interactive Weather Map New forecast layout! Learn more

10-Day Weather Forecast

Advertisements
Track Severe Weather on mobile